createdAt,value
2019-04-22T00:01:50.262Z,22.42
2019-04-22T00:04:48.139Z,25.20
2019-04-22T00:07:48.935Z,22.87
2019-04-22T00:10:44.917Z,19.50
2019-04-22T00:13:49.186Z,25.68
2019-04-22T00:16:43.233Z,19.73
2019-04-22T00:19:24.349Z,23.38
2019-04-22T00:22:08.075Z,27.02
2019-04-22T00:24:54.750Z,21.50
2019-04-22T00:28:04.490Z,20.70
2019-04-22T00:30:47.175Z,23.77
2019-04-22T00:33:35.420Z,21.10
2019-04-22T00:36:23.531Z,19.63
2019-04-22T00:39:26.980Z,21.00
2019-04-22T00:42:17.892Z,20.47
2019-04-22T00:45:11.693Z,18.37
2019-04-22T00:47:46.267Z,31.25
2019-04-22T00:50:55.076Z,19.63
2019-04-22T00:53:26.075Z,25.72
2019-04-22T00:58:50.245Z,23.07
2019-04-22T01:01:43.030Z,23.20
2019-04-22T01:07:17.683Z,19.73
2019-04-22T01:10:06.946Z,22.17
2019-04-22T01:12:49.702Z,22.17
2019-04-22T01:15:40.822Z,19.80
2019-04-22T01:18:27.938Z,20.53
2019-04-22T01:21:38.559Z,19.60
2019-04-22T01:23:59.790Z,23.83
2019-04-22T01:26:38.955Z,19.37
2019-04-22T01:29:22.787Z,20.53
2019-04-22T01:32:05.912Z,23.23
2019-04-22T01:35:02.425Z,20.83
2019-04-22T01:37:54.413Z,23.00
2019-04-22T01:40:53.909Z,21.07
2019-04-22T01:43:40.954Z,23.30
2019-04-22T01:46:28.700Z,21.57
2019-04-22T01:49:07.815Z,20.80
2019-04-22T01:51:59.832Z,22.03
2019-04-22T01:54:52.533Z,29.00
2019-04-22T01:57:31.728Z,23.27
2019-04-22T02:00:11.472Z,24.07
2019-04-22T02:03:08.698Z,23.23
2019-04-22T02:05:53.557Z,21.73
2019-04-22T02:08:46.652Z,25.37
2019-04-22T02:11:37.352Z,22.83
2019-04-22T02:14:20.563Z,23.47
2019-04-22T02:19:54.898Z,22.90
2019-04-22T02:23:33.530Z,19.20
2019-04-22T02:28:47.012Z,20.27
2019-04-22T02:37:18.847Z,24.73
2019-04-22T02:40:03.505Z,20.80
2019-04-22T02:42:51.743Z,23.80
2019-04-22T02:45:50.180Z,19.57
2019-04-22T02:48:40.156Z,19.17
2019-04-22T02:51:16.282Z,24.83
2019-04-22T02:54:26.598Z,24.33
2019-04-22T02:56:48.710Z,21.43
2019-04-22T03:05:24.132Z,21.27
2019-04-22T03:08:18.823Z,20.77
2019-04-22T03:13:59.888Z,20.67
2019-04-22T03:16:37.516Z,23.57
2019-04-22T03:19:36.644Z,23.60
2019-04-22T03:22:19.270Z,21.00
2019-04-22T03:25:23.844Z,19.73
2019-04-22T03:27:40.208Z,18.50
2019-04-22T03:36:36.442Z,17.50
2019-04-22T03:39:18.920Z,19.37
2019-04-22T03:42:01.169Z,19.07
2019-04-22T03:44:38.612Z,17.90
2019-04-22T03:47:38.663Z,21.63
2019-04-22T03:53:03.957Z,14.33
2019-04-22T03:55:46.704Z,16.17
2019-04-22T03:58:39.246Z,20.60
2019-04-22T04:01:30.574Z,19.23
2019-04-22T04:04:24.225Z,16.77
2019-04-22T04:10:35.367Z,19.53
2019-04-22T04:15:55.765Z,19.03
2019-04-22T04:19:05.473Z,19.13
2019-04-22T04:27:20.837Z,25.17
2019-04-22T04:30:09.965Z,21.13
2019-04-22T04:35:43.023Z,15.70
2019-04-22T04:38:11.505Z,20.13
2019-04-22T04:41:19.366Z,18.83
2019-04-22T04:44:01.487Z,17.87
2019-04-22T04:52:57.304Z,19.10
2019-04-22T04:58:26.603Z,14.77
2019-04-22T05:01:10.550Z,16.63
2019-04-22T05:03:49.692Z,13.97
2019-04-22T05:06:33.084Z,15.70
2019-04-22T05:12:25.237Z,15.57
2019-04-22T05:14:51.767Z,20.47
2019-04-22T05:17:35.599Z,13.00
2019-04-22T05:20:38.646Z,15.93
2019-04-22T05:23:08.742Z,14.47
2019-04-22T05:25:57.960Z,13.40
2019-04-22T05:28:35.231Z,15.17
2019-04-22T05:31:32.610Z,16.97
2019-04-22T05:34:17.405Z,15.53
2019-04-22T05:37:01.172Z,14.07
2019-04-22T05:39:52.388Z,17.37
2019-04-22T05:42:28.499Z,12.93
2019-04-22T05:45:28.201Z,12.87
2019-04-22T05:48:18.834Z,13.70
2019-04-22T05:51:01.110Z,13.57
2019-04-22T05:53:48.303Z,15.50
2019-04-22T05:59:24.795Z,15.43
2019-04-22T06:02:21.038Z,13.87
2019-04-22T06:05:06.960Z,11.03
2019-04-22T06:07:47.188Z,10.63
2019-04-22T06:13:18.184Z,12.67
2019-04-22T06:16:09.417Z,14.30
2019-04-22T06:22:15.474Z,14.23
2019-04-22T06:25:01.178Z,11.93
2019-04-22T06:27:52.465Z,12.17
2019-04-22T06:30:34.689Z,9.53
2019-04-22T06:33:23.643Z,9.43
2019-04-22T06:36:08.817Z,12.07
2019-04-22T06:38:57.093Z,13.53
2019-04-22T06:42:01.005Z,6.83
2019-04-22T06:44:29.691Z,6.60
2019-04-22T06:47:37.937Z,7.77
2019-04-22T06:50:07.823Z,11.30
2019-04-22T06:53:23.938Z,6.20
2019-04-22T06:55:57.354Z,7.00
2019-04-22T06:58:39.914Z,6.17
2019-04-22T07:01:30.091Z,6.45
2019-04-22T07:04:17.119Z,8.03
2019-04-22T07:07:12.795Z,8.23
2019-04-22T07:13:01.540Z,6.65
2019-04-22T07:15:56.333Z,7.55
2019-04-22T07:18:54.506Z,6.78
2019-04-22T07:21:55.346Z,9.13
2019-04-22T07:27:27.516Z,7.92
2019-04-22T07:30:20.678Z,6.17
2019-04-22T07:35:56.139Z,10.70
2019-04-22T07:41:12.357Z,7.08
2019-04-22T07:47:15.235Z,6.53
2019-04-22T07:50:03.953Z,7.87
2019-04-22T07:52:38.789Z,7.70
2019-04-22T07:55:32.531Z,6.53
2019-04-22T07:58:29.302Z,6.35
2019-04-22T08:01:39.770Z,6.25
2019-04-22T08:04:35.413Z,5.62
2019-04-22T08:07:24.210Z,5.78
2019-04-22T08:10:24.457Z,6.42
2019-04-22T08:13:19.655Z,7.58
2019-04-22T08:16:02.631Z,6.65
2019-04-22T08:18:57.610Z,14.55
2019-04-22T08:21:39.256Z,8.58
2019-04-22T08:24:35.590Z,6.97
2019-04-22T08:27:19.779Z,6.53
2019-04-22T08:32:55.363Z,7.90
2019-04-22T08:36:03.882Z,9.65
2019-04-22T08:38:55.862Z,7.80
2019-04-22T08:41:55.534Z,7.70
2019-04-22T08:44:55.355Z,7.53
2019-04-22T08:47:26.446Z,8.70
2019-04-22T08:53:06.459Z,7.95
2019-04-22T08:55:53.332Z,8.05
2019-04-22T08:58:51.912Z,5.85
2019-04-22T09:01:17.458Z,7.87
2019-04-22T09:04:02.410Z,7.30
2019-04-22T09:10:05.150Z,9.38
2019-04-22T09:13:20.600Z,5.80
2019-04-22T09:15:58.883Z,8.43
2019-04-22T09:18:48.175Z,9.53
2019-04-22T09:24:23.359Z,9.00
2019-04-22T09:27:14.343Z,9.20
2019-04-22T09:30:15.752Z,8.28
2019-04-22T09:33:02.865Z,12.60
2019-04-22T09:36:07.841Z,6.37
2019-04-22T09:38:45.054Z,6.33
2019-04-22T09:41:31.899Z,8.28
2019-04-22T09:44:16.301Z,8.33
2019-04-22T09:47:07.914Z,9.18
2019-04-22T09:50:03.727Z,7.55
2019-04-22T09:52:43.697Z,6.55
2019-04-22T09:55:29.783Z,30.65
2019-04-22T09:58:40.328Z,7.47
2019-04-22T10:04:14.164Z,16.70
2019-04-22T10:07:01.018Z,6.95
2019-04-22T10:13:06.388Z,11.25
2019-04-22T10:15:52.205Z,5.90
2019-04-22T10:18:39.127Z,8.38
2019-04-22T10:24:29.671Z,7.17
2019-04-22T10:27:21.078Z,6.20
2019-04-22T10:32:52.251Z,6.00
2019-04-22T10:35:20.979Z,6.65
2019-04-22T10:38:04.449Z,5.05
2019-04-22T10:40:52.542Z,6.60
2019-04-22T10:43:57.058Z,5.70
2019-04-22T10:46:42.293Z,7.20
2019-04-22T10:49:30.579Z,6.42
2019-04-22T10:52:35.170Z,6.22
2019-04-22T10:55:21.314Z,10.85
2019-04-22T10:58:10.613Z,6.50
2019-04-22T11:00:56.190Z,6.62
2019-04-22T11:03:43.103Z,5.25
2019-04-22T11:06:29.478Z,6.53
2019-04-22T11:09:16.195Z,6.72
2019-04-22T11:12:09.315Z,5.97
2019-04-22T11:14:49.680Z,6.30
2019-04-22T11:17:35.556Z,4.90
2019-04-22T11:20:27.024Z,5.65
2019-04-22T11:23:18.665Z,6.55
2019-04-22T11:26:05.904Z,5.42
2019-04-22T11:28:51.770Z,5.37
2019-04-22T11:31:39.875Z,4.17
2019-04-22T11:34:25.018Z,4.12
2019-04-22T11:37:10.263Z,4.85
2019-04-22T11:40:06.828Z,3.67
2019-04-22T11:42:41.970Z,5.10
2019-04-22T11:45:27.056Z,5.47
2019-04-22T11:48:15.431Z,4.03
2019-04-22T11:51:09.976Z,4.17
2019-04-22T11:54:01.190Z,3.58
2019-04-22T11:56:56.786Z,4.08
2019-04-22T11:59:42.831Z,3.37
2019-04-22T12:02:40.978Z,3.60
2019-04-22T12:05:44.151Z,3.47
2019-04-22T12:08:29.180Z,4.25
2019-04-22T12:11:14.012Z,3.12
2019-04-22T12:14:02.155Z,5.00
2019-04-22T12:16:49.793Z,3.42
2019-04-22T12:19:35.228Z,4.53
2019-04-22T12:22:20.891Z,4.22
2019-04-22T12:25:10.665Z,4.28
2019-04-22T12:27:56.919Z,3.65
2019-04-22T12:30:41.813Z,5.78
2019-04-22T12:33:27.705Z,3.45
2019-04-22T12:36:12.861Z,3.72
2019-04-22T12:38:57.773Z,9.05
2019-04-22T12:41:46.360Z,4.35
2019-04-22T12:44:32.624Z,3.00
2019-04-22T12:47:22.113Z,5.20
2019-04-22T12:50:18.644Z,3.70
2019-04-22T12:53:01.278Z,3.02
2019-04-22T12:55:43.916Z,4.53
2019-04-22T12:58:29.811Z,3.17
2019-04-22T13:01:17.378Z,10.58
2019-04-22T13:04:08.969Z,3.40
2019-04-22T13:06:53.429Z,2.80
2019-04-22T13:09:39.043Z,2.80
2019-04-22T13:12:24.817Z,2.95
2019-04-22T13:15:15.891Z,3.75
2019-04-22T13:18:10.693Z,2.75
2019-04-22T13:21:08.600Z,3.20
2019-04-22T13:23:57.100Z,3.52
2019-04-22T13:27:01.221Z,3.15
2019-04-22T13:30:08.286Z,2.67
2019-04-22T13:33:12.530Z,2.60
2019-04-22T13:36:19.041Z,2.98
2019-04-22T13:39:06.987Z,3.05
2019-04-22T13:42:07.511Z,4.80
2019-04-22T13:44:51.772Z,2.62
2019-04-22T13:47:55.733Z,8.85
2019-04-22T13:56:18.821Z,3.17
2019-04-22T13:58:58.985Z,3.45
2019-04-22T14:01:54.726Z,3.70
2019-04-22T14:04:42.641Z,3.22
2019-04-22T14:07:28.648Z,6.20
2019-04-22T14:10:14.197Z,7.50
2019-04-22T14:13:00.196Z,4.37
2019-04-22T14:15:46.594Z,3.47
2019-04-22T14:18:32.820Z,5.33
2019-04-22T14:21:21.086Z,3.50
2019-04-22T14:24:07.308Z,3.00
2019-04-22T14:27:06.801Z,4.33
2019-04-22T14:29:40.136Z,3.87
2019-04-22T14:32:28.034Z,4.62
2019-04-22T14:35:31.277Z,2.95
2019-04-22T14:38:16.375Z,3.00
2019-04-22T14:41:02.414Z,4.35
2019-04-22T14:44:49.617Z,7.55
2019-04-22T14:47:02.187Z,4.12
2019-04-22T14:49:42.083Z,4.40
2019-04-22T14:52:47.486Z,3.02
2019-04-22T14:55:17.493Z,4.83
2019-04-22T14:57:57.215Z,4.05
2019-04-22T15:00:42.361Z,4.60
2019-04-22T15:03:27.829Z,3.80
2019-04-22T15:06:12.663Z,6.42
2019-04-22T15:09:16.370Z,7.30
2019-04-22T15:12:12.047Z,6.58
2019-04-22T15:15:19.611Z,5.70
2019-04-22T15:18:24.195Z,7.40
2019-04-22T15:21:14.508Z,5.08
2019-04-22T15:24:25.168Z,7.90
2019-04-22T15:27:10.655Z,8.90
2019-04-22T15:29:55.462Z,9.78
2019-04-22T15:32:59.071Z,5.30
2019-04-22T15:35:44.829Z,3.65
2019-04-22T15:38:32.541Z,6.70
2019-04-22T15:41:18.668Z,9.35
2019-04-22T15:44:03.759Z,4.25
2019-04-22T15:47:07.203Z,4.20
2019-04-22T15:49:52.175Z,6.72
2019-04-22T15:52:43.887Z,3.42
2019-04-22T15:55:27.154Z,3.50
2019-04-22T15:58:15.453Z,7.37
2019-04-22T16:01:16.122Z,4.58
2019-04-22T16:03:54.537Z,3.90
2019-04-22T16:06:41.131Z,4.70
2019-04-22T16:09:26.926Z,4.00
2019-04-22T16:12:19.336Z,3.60
2019-04-22T16:14:59.708Z,3.70
2019-04-22T16:18:04.760Z,4.47
2019-04-22T16:20:50.334Z,2.92
2019-04-22T16:23:50.104Z,4.00
2019-04-22T16:26:40.254Z,4.45
2019-04-22T16:29:25.220Z,4.45
2019-04-22T16:32:23.481Z,4.35
2019-04-22T16:35:12.714Z,5.30
2019-04-22T16:37:58.777Z,4.92
2019-04-22T16:40:59.211Z,6.97
2019-04-22T16:43:50.812Z,5.72
2019-04-22T16:46:37.330Z,5.12
2019-04-22T16:49:25.534Z,4.12
2019-04-22T16:52:12.076Z,5.97
2019-04-22T16:55:16.996Z,4.35
2019-04-22T16:58:03.237Z,7.12
2019-04-22T17:00:49.701Z,3.58
2019-04-22T17:03:58.510Z,6.33
2019-04-22T17:06:45.587Z,4.28
2019-04-22T17:09:30.231Z,3.83
2019-04-22T17:12:17.719Z,4.47
2019-04-22T17:15:22.552Z,3.10
2019-04-22T17:18:17.195Z,5.55
2019-04-22T17:21:05.464Z,6.45
2019-04-22T17:23:49.932Z,4.30
2019-04-22T17:26:35.054Z,2.85
2019-04-22T17:29:20.862Z,2.45
2019-04-22T17:32:12.772Z,8.18
2019-04-22T17:34:55.407Z,3.55
2019-04-22T17:37:41.458Z,4.28
2019-04-22T17:40:51.114Z,2.45
2019-04-22T17:43:53.808Z,6.12
2019-04-22T17:47:04.561Z,3.10
2019-04-22T17:50:08.259Z,1.87
2019-04-22T17:53:19.248Z,2.85
2019-04-22T17:56:05.189Z,2.80
2019-04-22T17:58:47.696Z,5.03
2019-04-22T18:01:29.542Z,2.02
2019-04-22T18:04:01.418Z,4.78
2019-04-22T18:07:27.945Z,6.05
2019-04-22T18:13:28.647Z,1.52
2019-04-22T18:16:10.203Z,1.85
2019-04-22T18:18:54.392Z,2.62
2019-04-22T18:21:35.013Z,1.92
2019-04-22T18:24:17.417Z,1.65
2019-04-22T18:30:03.999Z,1.87
2019-04-22T18:32:58.581Z,2.77
2019-04-22T18:35:58.406Z,2.85
2019-04-22T18:38:59.879Z,2.27
2019-04-22T18:41:34.205Z,2.27
2019-04-22T18:44:23.547Z,1.90
2019-04-22T18:47:10.232Z,1.80
2019-04-22T18:50:03.059Z,2.00
2019-04-22T18:53:21.689Z,2.35
2019-04-22T18:56:25.518Z,3.17
2019-04-22T18:59:21.594Z,1.98
2019-04-22T19:02:16.311Z,2.87
2019-04-22T19:05:12.172Z,1.65
2019-04-22T19:08:16.775Z,1.55
2019-04-22T19:11:07.373Z,2.25
2019-04-22T19:16:59.704Z,1.80
2019-04-22T19:20:02.976Z,1.35
2019-04-22T19:22:44.040Z,5.90
2019-04-22T19:25:25.875Z,1.57
2019-04-22T19:28:27.829Z,5.30
2019-04-22T19:31:24.691Z,1.72
2019-04-22T19:34:12.934Z,3.08
2019-04-22T19:36:56.210Z,1.70
2019-04-22T19:39:41.158Z,8.08
2019-04-22T19:42:36.666Z,1.42
2019-04-22T19:45:19.973Z,5.12
2019-04-22T19:48:22.137Z,3.42
2019-04-22T19:53:54.346Z,6.58
2019-04-22T19:56:45.725Z,1.25
2019-04-22T19:59:45.340Z,1.32
2019-04-22T20:02:38.850Z,1.05
2019-04-22T20:05:30.020Z,1.30
2019-04-22T20:08:22.901Z,1.70
2019-04-22T20:11:12.861Z,5.12
2019-04-22T20:14:10.731Z,1.50
2019-04-22T20:16:59.810Z,1.60
2019-04-22T20:19:59.137Z,4.80
2019-04-22T20:22:37.145Z,4.30
2019-04-22T20:25:20.822Z,1.57
2019-04-22T20:28:24.114Z,2.65
2019-04-22T20:31:03.266Z,5.83
2019-04-22T20:33:56.299Z,1.65
2019-04-22T20:37:01.798Z,1.92
2019-04-22T20:39:33.428Z,1.90
2019-04-22T20:42:35.628Z,1.95
2019-04-22T20:45:19.499Z,1.60
2019-04-22T20:47:50.954Z,3.10
2019-04-22T20:50:51.619Z,6.62
2019-04-22T20:53:43.917Z,1.35
2019-04-22T20:56:30.097Z,1.85
2019-04-22T20:59:19.446Z,5.95
2019-04-22T21:02:02.109Z,2.17
2019-04-22T21:04:41.525Z,2.00
2019-04-22T21:08:05.291Z,2.80
2019-04-22T21:10:44.552Z,2.50
2019-04-22T21:13:55.976Z,2.12
2019-04-22T21:16:46.137Z,2.27
2019-04-22T21:19:38.151Z,3.58
2019-04-22T21:22:19.413Z,1.77
2019-04-22T21:24:57.795Z,4.12
2019-04-22T21:28:00.131Z,5.20
2019-04-22T21:30:53.977Z,7.78
2019-04-22T21:33:54.882Z,2.10
2019-04-22T21:36:50.764Z,2.65
2019-04-22T21:39:26.344Z,2.60
2019-04-22T21:42:15.411Z,2.25
2019-04-22T21:45:04.735Z,1.72
2019-04-22T21:48:07.065Z,6.87
2019-04-22T21:53:37.961Z,1.90
2019-04-22T21:56:36.868Z,1.90
2019-04-22T21:59:12.435Z,1.85
2019-04-22T22:02:05.647Z,2.22
2019-04-22T22:04:47.258Z,1.70
2019-04-22T22:07:21.986Z,1.70
2019-04-22T22:10:29.671Z,1.60
2019-04-22T22:13:11.176Z,1.67
2019-04-22T22:16:00.131Z,2.40
2019-04-22T22:18:50.630Z,4.15
2019-04-22T22:21:47.863Z,1.62
2019-04-22T22:24:35.842Z,1.60
2019-04-22T22:27:18.796Z,2.98
2019-04-22T22:30:29.390Z,3.30
2019-04-22T22:33:02.823Z,2.25
2019-04-22T22:35:40.789Z,5.08
2019-04-22T22:38:27.137Z,3.92
2019-04-22T22:41:07.765Z,3.80
2019-04-22T22:43:57.008Z,1.70
2019-04-22T22:46:55.864Z,3.58
2019-04-22T22:49:47.160Z,5.60
2019-04-22T22:55:33.245Z,2.33
2019-04-22T22:58:24.105Z,10.95
2019-04-22T23:00:57.996Z,3.30
2019-04-22T23:03:57.352Z,2.33
2019-04-22T23:06:44.365Z,2.62
2019-04-22T23:09:29.020Z,2.12
2019-04-22T23:12:30.292Z,3.17
2019-04-22T23:14:59.081Z,1.98
2019-04-22T23:17:33.408Z,4.35
2019-04-22T23:20:18.451Z,5.85
2019-04-22T23:23:22.063Z,2.90
2019-04-22T23:26:11.920Z,2.83
2019-04-22T23:29:02.335Z,4.22
2019-04-22T23:31:42.045Z,6.55
2019-04-22T23:34:39.139Z,3.30
2019-04-22T23:37:21.986Z,2.08
2019-04-22T23:40:23.110Z,1.70
2019-04-22T23:43:09.160Z,3.63
2019-04-22T23:45:51.730Z,2.37
2019-04-22T23:48:32.834Z,4.17
2019-04-22T23:51:25.300Z,2.75
2019-04-22T23:54:28.805Z,2.67
2019-04-22T23:57:07.596Z,3.02
2019-04-22T23:59:57.173Z,3.75
